Time;durP1;ratioP1;P1;durP2;ratioP2;P2;SDS_P1;SDS_P2;PMS_P1;PMS_P2;Temp;Humidity;BMP_temperature;BMP_pressure;BME280_temperature;BME280_humidity;BME280_pressure;Samples;Min_cycle;Max_cycle;Signal;HPM_P1;HPM_P2
2021/10/13 00:00:40;;;;;;;1.90;1.40;;;;;;;;;;4977921;28;20200;-80
2021/10/13 00:03:07;;;;;;;1.50;1.40;;;;;;;;;;4977308;28;20207;-80
2021/10/13 00:05:35;;;;;;;2.25;1.55;;;;;;;;;;4977352;28;20208;-80
2021/10/13 00:08:04;;;;;;;2.53;1.55;;;;;;;;;;4977266;28;20231;-80
2021/10/13 00:10:31;;;;;;;1.77;1.50;;;;;;;;;;4977796;28;20193;-80
2021/10/13 00:12:59;;;;;;;4.25;1.50;;;;;;;;;;4977902;28;20216;-80
2021/10/13 00:15:26;;;;;;;2.80;1.83;;;;;;;;;;4978438;28;20196;-80
2021/10/13 00:17:54;;;;;;;6.88;1.73;;;;;;;;;;4978419;28;20305;-79
2021/10/13 00:20:21;;;;;;;4.93;1.90;;;;;;;;;;4977924;28;20212;-80
2021/10/13 00:22:49;;;;;;;3.08;1.60;;;;;;;;;;4978337;28;20196;-80
2021/10/13 00:25:17;;;;;;;5.25;2.30;;;;;;;;;;4977728;28;20562;-80
2021/10/13 00:27:45;;;;;;;2.70;1.85;;;;;;;;;;4977068;28;20232;-80
2021/10/13 00:30:13;;;;;;;2.30;2.10;;;;;;;;;;4977047;28;20214;-80
2021/10/13 00:32:40;;;;;;;2.67;2.10;;;;;;;;;;4977384;28;20228;-80
2021/10/13 00:35:08;;;;;;;2.65;2.15;;;;;;;;;;4977120;28;20189;-79
2021/10/13 00:37:35;;;;;;;2.55;2.35;;;;;;;;;;4976892;28;20703;-80
2021/10/13 00:40:03;;;;;;;2.28;2.08;;;;;;;;;;4976504;28;20201;-80
2021/10/13 00:42:32;;;;;;;2.15;2.00;;;;;;;;;;4977130;28;20192;-80
2021/10/13 00:45:00;;;;;;;5.25;2.38;;;;;;;;;;4976484;28;20213;-80
2021/10/13 00:47:27;;;;;;;4.07;3.05;;;;;;;;;;4981001;28;20211;-79
2021/10/13 00:49:55;;;;;;;3.17;2.25;;;;;;;;;;4996189;28;20208;-79
2021/10/13 00:52:22;;;;;;;3.15;2.17;;;;;;;;;;4995241;28;20239;-80
2021/10/13 00:54:49;;;;;;;2.95;2.53;;;;;;;;;;4995977;28;20208;-80
2021/10/13 00:57:17;;;;;;;2.75;2.35;;;;;;;;;;4991083;28;20225;-80
2021/10/13 00:59:46;;;;;;;2.78;2.63;;;;;;;;;;4976451;28;20192;-80
2021/10/13 01:02:16;;;;;;;3.67;2.30;;;;;;;;;;4975032;28;20208;-79
2021/10/13 01:05:01;;;;;;;2.63;2.25;;;;;;;;;;4976462;28;20189;-80
2021/10/13 01:07:37;;;;;;;4.30;2.30;;;;;;;;;;4976649;28;20581;-80
2021/10/13 01:10:10;;;;;;;3.05;2.30;;;;;;;;;;4975282;28;20188;-80
2021/10/13 01:12:52;;;;;;;4.90;2.88;;;;;;;;;;4976457;28;20185;-80
2021/10/13 01:15:28;;;;;;;3.28;2.78;;;;;;;;;;4976571;28;20195;-80
2021/10/13 01:18:03;;;;;;;2.67;2.47;;;;;;;;;;4976623;28;20220;-79
2021/10/13 01:20:48;;;;;;;2.50;2.30;;;;;;;;;;4994726;28;20191;-80
2021/10/13 01:23:48;;;;;;;4.70;3.20;;;;;;;;;;4995877;28;20187;-80
2021/10/13 01:26:22;;;;;;;4.93;3.33;;;;;;;;;;4995828;28;20192;-80
2021/10/13 01:28:53;;;;;;;3.95;3.63;;;;;;;;;;4995730;28;20228;-80
2021/10/13 01:31:23;;;;;;;4.13;3.50;;;;;;;;;;4989014;28;20652;-80
2021/10/13 01:33:58;;;;;;;6.82;3.75;;;;;;;;;;4976516;28;20231;-80
2021/10/13 01:36:29;;;;;;;4.38;3.60;;;;;;;;;;4976489;28;20184;-80
2021/10/13 01:38:58;;;;;;;3.50;2.97;;;;;;;;;;4981847;28;20222;-80
2021/10/13 01:41:27;;;;;;;4.63;3.42;;;;;;;;;;4995882;28;20192;-80
2021/10/13 01:43:56;;;;;;;3.17;2.88;;;;;;;;;;4995810;28;20188;-80
2021/10/13 01:46:24;;;;;;;3.00;2.80;;;;;;;;;;4995602;28;20188;-80
2021/10/13 01:48:54;;;;;;;3.00;2.80;;;;;;;;;;4990216;28;20216;-80
2021/10/13 01:51:22;;;;;;;3.97;3.58;;;;;;;;;;4975637;28;20725;-80
2021/10/13 01:53:50;;;;;;;3.78;3.47;;;;;;;;;;4975756;28;20645;-80
2021/10/13 01:56:18;;;;;;;4.32;2.60;;;;;;;;;;4975276;28;20743;-80
2021/10/13 01:58:47;;;;;;;3.55;3.25;;;;;;;;;;4975387;28;20217;-80
2021/10/13 02:01:18;;;;;;;3.75;3.33;;;;;;;;;;4975032;28;20204;-80
2021/10/13 02:03:47;;;;;;;4.07;3.60;;;;;;;;;;4974592;28;20666;-79
2021/10/13 02:06:17;;;;;;;4.55;3.35;;;;;;;;;;4975638;28;20188;-80
2021/10/13 02:08:45;;;;;;;5.38;4.63;;;;;;;;;;4974870;28;20232;-80
2021/10/13 02:11:12;;;;;;;4.53;3.55;;;;;;;;;;4975906;28;20200;-80
2021/10/13 02:13:40;;;;;;;4.35;3.90;;;;;;;;;;4975191;28;20212;-80
2021/10/13 02:16:08;;;;;;;4.40;4.00;;;;;;;;;;4980384;28;20200;-80
2021/10/13 02:18:39;;;;;;;4.40;4.10;;;;;;;;;;4994571;28;20609;-80
2021/10/13 02:21:07;;;;;;;6.30;4.10;;;;;;;;;;4994034;28;20212;-80
2021/10/13 02:23:36;;;;;;;4.93;4.53;;;;;;;;;;4994886;28;20545;-79
2021/10/13 02:26:08;;;;;;;4.57;3.90;;;;;;;;;;4994705;28;20211;-80
2021/10/13 02:28:40;;;;;;;4.00;3.70;;;;;;;;;;4994714;28;20255;-80
2021/10/13 02:31:08;;;;;;;4.18;3.60;;;;;;;;;;4994390;28;20658;-80
2021/10/13 02:33:38;;;;;;;4.65;3.55;;;;;;;;;;4993723;28;20230;-80
2021/10/13 02:36:06;;;;;;;3.58;3.28;;;;;;;;;;4976210;28;20679;-79
2021/10/13 02:38:34;;;;;;;4.53;3.63;;;;;;;;;;4975273;28;20231;-79
2021/10/13 02:41:01;;;;;;;3.55;3.20;;;;;;;;;;4973923;28;20632;-80
2021/10/13 02:43:29;;;;;;;3.97;3.45;;;;;;;;;;4974514;28;20214;-81
2021/10/13 02:46:00;;;;;;;3.75;3.45;;;;;;;;;;4974861;28;20200;-80
2021/10/13 02:48:30;;;;;;;4.35;3.78;;;;;;;;;;4973985;28;20644;-81
2021/10/13 02:51:08;;;;;;;4.90;4.32;;;;;;;;;;4974456;28;20192;-80
2021/10/13 02:53:40;;;;;;;4.03;3.63;;;;;;;;;;4974159;28;20204;-79
2021/10/13 02:56:13;;;;;;;5.20;2.60;;;;;;;;;;4974599;28;20710;-80
2021/10/13 02:58:43;;;;;;;5.65;2.58;;;;;;;;;;4974378;28;20220;-79
2021/10/13 03:01:15;;;;;;;3.35;2.67;;;;;;;;;;4974213;28;20200;-80
2021/10/13 03:03:48;;;;;;;2.67;2.47;;;;;;;;;;4972809;28;20796;-80
2021/10/13 03:06:18;;;;;;;3.13;2.70;;;;;;;;;;4974314;28;20185;-80
2021/10/13 03:08:49;;;;;;;2.90;2.70;;;;;;;;;;4975007;28;20220;-80
2021/10/13 03:11:18;;;;;;;5.82;2.63;;;;;;;;;;4974050;28;20189;-81
2021/10/13 03:13:49;;;;;;;3.95;3.05;;;;;;;;;;4986353;28;20200;-80
2021/10/13 03:16:18;;;;;;;5.00;3.95;;;;;;;;;;4993761;28;20686;-80
2021/10/13 03:18:46;;;;;;;3.30;2.92;;;;;;;;;;4992286;28;20235;-80
2021/10/13 03:21:13;;;;;;;3.33;3.03;;;;;;;;;;4984526;28;20207;-80
2021/10/13 03:23:43;;;;;;;2.75;2.55;;;;;;;;;;4993502;28;20196;-81
2021/10/13 03:26:14;;;;;;;11.13;4.05;;;;;;;;;;4993853;28;20188;-82
2021/10/13 03:28:42;;;;;;;3.42;3.13;;;;;;;;;;4993329;28;20238;-81
2021/10/13 03:31:10;;;;;;;5.00;3.40;;;;;;;;;;4993324;28;20677;-80
2021/10/13 03:33:38;;;;;;;3.33;2.80;;;;;;;;;;4993679;28;20635;-81
2021/10/13 03:36:07;;;;;;;3.47;3.13;;;;;;;;;;4993610;28;20693;-81
2021/10/13 03:38:35;;;;;;;5.20;3.47;;;;;;;;;;4994294;28;20227;-80
2021/10/13 03:41:04;;;;;;;3.67;3.38;;;;;;;;;;4993253;28;20210;-81
2021/10/13 03:43:31;;;;;;;3.42;3.00;;;;;;;;;;4993927;28;20198;-81
2021/10/13 03:45:59;;;;;;;3.55;3.22;;;;;;;;;;4993338;28;20188;-81
2021/10/13 03:48:27;;;;;;;3.40;3.10;;;;;;;;;;4993455;28;20219;-80
2021/10/13 03:50:55;;;;;;;2.92;2.72;;;;;;;;;;4990690;28;20222;-81
2021/10/13 03:53:22;;;;;;;3.58;3.28;;;;;;;;;;4973951;28;20204;-80
2021/10/13 03:55:49;;;;;;;4.30;3.17;;;;;;;;;;4973888;28;20212;-81
2021/10/13 03:58:18;;;;;;;3.40;3.10;;;;;;;;;;4972843;28;20235;-80
2021/10/13 04:00:46;;;;;;;3.45;2.83;;;;;;;;;;4973560;28;20214;-81
2021/10/13 04:03:13;;;;;;;3.03;2.72;;;;;;;;;;4973703;28;20577;-80
2021/10/13 04:05:41;;;;;;;3.47;3.17;;;;;;;;;;4972981;28;20560;-80
2021/10/13 04:08:09;;;;;;;5.03;3.03;;;;;;;;;;4973168;28;20232;-82
2021/10/13 04:10:36;;;;;;;3.47;3.10;;;;;;;;;;4986281;28;20188;-80
2021/10/13 04:13:04;;;;;;;2.80;2.60;;;;;;;;;;4992410;28;20209;-80
2021/10/13 04:15:32;;;;;;;3.35;3.05;;;;;;;;;;4992479;28;20231;-80
2021/10/13 04:18:00;;;;;;;3.28;2.88;;;;;;;;;;4992670;28;20224;-81
2021/10/13 04:20:27;;;;;;;3.35;3.15;;;;;;;;;;4992288;28;20188;-80
2021/10/13 04:22:54;;;;;;;3.10;2.80;;;;;;;;;;4992383;28;20199;-80
2021/10/13 04:25:22;;;;;;;5.43;3.08;;;;;;;;;;4992599;28;20191;-81
2021/10/13 04:27:50;;;;;;;3.03;2.80;;;;;;;;;;4990772;28;20216;-80
2021/10/13 04:30:17;;;;;;;3.25;3.03;;;;;;;;;;4976036;28;20215;-80
2021/10/13 04:32:46;;;;;;;3.50;3.00;;;;;;;;;;4976812;28;20193;-80
2021/10/13 04:35:14;;;;;;;3.47;3.00;;;;;;;;;;4976396;28;20235;-80
2021/10/13 04:37:41;;;;;;;3.85;2.53;;;;;;;;;;4976357;28;20227;-80
2021/10/13 04:40:10;;;;;;;3.47;2.88;;;;;;;;;;4975948;28;20567;-81
2021/10/13 04:42:37;;;;;;;4.43;2.70;;;;;;;;;;4976318;28;20208;-79
2021/10/13 04:45:06;;;;;;;2.92;2.13;;;;;;;;;;4975913;28;20204;-80
2021/10/13 04:47:33;;;;;;;2.75;2.42;;;;;;;;;;4978207;28;20220;-81
2021/10/13 04:50:04;;;;;;;2.70;2.50;;;;;;;;;;4958632;29;20197;-81
2021/10/13 04:52:31;;;;;;;5.15;2.50;;;;;;;;;;4956578;29;20477;-80
2021/10/13 04:54:59;;;;;;;2.63;2.42;;;;;;;;;;4956235;29;20240;-80
2021/10/13 04:57:26;;;;;;;2.03;1.83;;;;;;;;;;4956976;29;20232;-80
2021/10/13 04:59:55;;;;;;;2.92;2.53;;;;;;;;;;4993855;28;20215;-79
2021/10/13 05:02:22;;;;;;;2.40;2.20;;;;;;;;;;4995330;28;20222;-80
2021/10/13 05:04:49;;;;;;;2.72;2.53;;;;;;;;;;4995593;28;20195;-79
2021/10/13 05:07:18;;;;;;;3.17;2.47;;;;;;;;;;4995416;28;20236;-81
2021/10/13 05:09:46;;;;;;;3.53;2.72;;;;;;;;;;4995465;28;20218;-81
2021/10/13 05:12:13;;;;;;;3.08;2.35;;;;;;;;;;4995711;28;20188;-81
2021/10/13 05:14:40;;;;;;;2.65;2.40;;;;;;;;;;4995318;28;20207;-80
2021/10/13 05:17:08;;;;;;;2.33;2.13;;;;;;;;;;4995153;28;20234;-79
2021/10/13 05:19:35;;;;;;;3.88;2.63;;;;;;;;;;4995047;28;20211;-81
2021/10/13 05:22:03;;;;;;;1.70;1.60;;;;;;;;;;4994973;28;20222;-80
2021/10/13 05:24:32;;;;;;;2.30;2.10;;;;;;;;;;4994951;28;20204;-80
2021/10/13 05:26:59;;;;;;;2.85;2.58;;;;;;;;;;4995029;28;20202;-80
2021/10/13 05:29:27;;;;;;;8.07;3.25;;;;;;;;;;4993396;28;20204;-82
2021/10/13 05:31:54;;;;;;;3.30;2.67;;;;;;;;;;4995151;28;20192;-83
2021/10/13 05:34:21;;;;;;;2.58;2.38;;;;;;;;;;4993809;28;20184;-81
2021/10/13 05:36:49;;;;;;;3.47;2.40;;;;;;;;;;4994183;28;20230;-83
2021/10/13 05:39:16;;;;;;;1.70;1.60;;;;;;;;;;4995062;28;20192;-81
2021/10/13 05:41:45;;;;;;;2.30;2.10;;;;;;;;;;4994931;28;20203;-82
2021/10/13 05:44:12;;;;;;;2.22;2.00;;;;;;;;;;4994720;28;20200;-82
2021/10/13 05:46:40;;;;;;;2.22;2.03;;;;;;;;;;4994732;28;20191;-82
2021/10/13 05:49:07;;;;;;;1.90;1.80;;;;;;;;;;4990775;28;20217;-82
2021/10/13 05:51:35;;;;;;;1.40;1.30;;;;;;;;;;4974887;28;20236;-82
2021/10/13 05:54:03;;;;;;;1.67;1.58;;;;;;;;;;4975417;28;20842;-84
2021/10/13 05:56:30;;;;;;;1.42;1.33;;;;;;;;;;4975027;28;20208;-82
2021/10/13 05:58:59;;;;;;;2.42;2.22;;;;;;;;;;4974380;28;20236;-83
2021/10/13 06:01:27;;;;;;;1.65;1.55;;;;;;;;;;4974812;28;20196;-84
2021/10/13 06:03:54;;;;;;;1.60;1.50;;;;;;;;;;4976594;28;20196;-83
2021/10/13 06:06:21;;;;;;;1.45;1.35;;;;;;;;;;4974601;28;20200;-83
2021/10/13 06:08:49;;;;;;;1.23;1.20;;;;;;;;;;4973345;28;20220;-84
2021/10/13 06:11:17;;;;;;;1.15;1.15;;;;;;;;;;4974404;28;20569;-83
2021/10/13 06:13:45;;;;;;;1.30;1.20;;;;;;;;;;4974407;28;20216;-82
2021/10/13 06:16:14;;;;;;;1.40;1.30;;;;;;;;;;4974284;28;20207;-82
2021/10/13 06:18:41;;;;;;;1.88;1.77;;;;;;;;;;4973795;28;20331;-83
2021/10/13 06:21:09;;;;;;;3.92;1.85;;;;;;;;;;4974606;28;20191;-82
2021/10/13 06:23:36;;;;;;;1.85;1.75;;;;;;;;;;4974588;28;20185;-83
2021/10/13 06:26:04;;;;;;;3.72;2.15;;;;;;;;;;4974830;28;20188;-82
2021/10/13 06:28:31;;;;;;;3.05;2.75;;;;;;;;;;4974671;28;20221;-83
2021/10/13 06:30:59;;;;;;;3.05;2.85;;;;;;;;;;4974845;28;20259;-83
2021/10/13 06:33:28;;;;;;;4.07;2.45;;;;;;;;;;4974270;28;20197;-83
2021/10/13 06:35:56;;;;;;;2.80;2.42;;;;;;;;;;4974219;28;20213;-82
2021/10/13 06:38:23;;;;;;;2.95;2.65;;;;;;;;;;4974500;28;20228;-82
2021/10/13 06:40:51;;;;;;;3.22;2.40;;;;;;;;;;4974192;28;20188;-82
2021/10/13 06:43:19;;;;;;;2.80;2.60;;;;;;;;;;4974154;28;20670;-82
2021/10/13 06:45:47;;;;;;;2.45;2.25;;;;;;;;;;4973846;28;20211;-82
2021/10/13 06:48:14;;;;;;;1.85;1.75;;;;;;;;;;4974278;28;20231;-82
2021/10/13 06:50:43;;;;;;;1.48;1.38;;;;;;;;;;4973272;28;20211;-83
2021/10/13 06:53:11;;;;;;;1.45;1.30;;;;;;;;;;4973977;28;20247;-83
2021/10/13 06:55:39;;;;;;;1.38;1.27;;;;;;;;;;4974195;28;20220;-83
2021/10/13 06:58:06;;;;;;;2.13;2.03;;;;;;;;;;4973879;28;20236;-83
2021/10/13 07:00:34;;;;;;;2.80;2.60;;;;;;;;;;4973617;28;20204;-83
2021/10/13 07:03:01;;;;;;;2.03;1.92;;;;;;;;;;4973935;28;20200;-83
2021/10/13 07:05:29;;;;;;;2.30;1.85;;;;;;;;;;4974077;28;20216;-83
2021/10/13 07:07:58;;;;;;;1.95;1.85;;;;;;;;;;4973824;28;20216;-84
2021/10/13 07:10:25;;;;;;;2.63;2.35;;;;;;;;;;4973873;28;20247;-83
2021/10/13 07:12:53;;;;;;;3.00;2.70;;;;;;;;;;4973755;28;20691;-83
2021/10/13 07:15:21;;;;;;;2.53;2.33;;;;;;;;;;4973916;28;20199;-83
2021/10/13 07:17:49;;;;;;;2.45;2.25;;;;;;;;;;4973757;28;20232;-82
2021/10/13 07:20:16;;;;;;;2.55;2.38;;;;;;;;;;4973580;28;20553;-83
2021/10/13 07:22:43;;;;;;;4.45;3.90;;;;;;;;;;4973831;28;20192;-83
2021/10/13 07:25:12;;;;;;;3.60;2.83;;;;;;;;;;4973506;28;20191;-82
2021/10/13 07:27:40;;;;;;;2.42;2.33;;;;;;;;;;4973618;28;20227;-82
2021/10/13 07:30:13;;;;;;;2.20;2.08;;;;;;;;;;4973439;28;20641;-82
2021/10/13 07:32:40;;;;;;;2.15;2.03;;;;;;;;;;4973424;28;20632;-82
2021/10/13 07:35:08;;;;;;;2.22;2.08;;;;;;;;;;4973186;28;20591;-82
2021/10/13 07:37:36;;;;;;;2.40;1.80;;;;;;;;;;4974106;28;20232;-83
2021/10/13 07:40:05;;;;;;;4.38;3.20;;;;;;;;;;4975707;28;20195;-83
2021/10/13 07:42:34;;;;;;;3.90;3.60;;;;;;;;;;4975770;28;20195;-82
2021/10/13 07:45:02;;;;;;;3.47;2.70;;;;;;;;;;4973504;28;20189;-81
2021/10/13 07:47:29;;;;;;;2.50;2.30;;;;;;;;;;4973623;28;20231;-82
2021/10/13 07:49:57;;;;;;;3.10;2.83;;;;;;;;;;4973158;28;20208;-83
2021/10/13 07:52:24;;;;;;;2.38;2.17;;;;;;;;;;4972502;28;20240;-82
2021/10/13 07:54:53;;;;;;;2.25;2.05;;;;;;;;;;4973719;28;20223;-83
2021/10/13 07:57:20;;;;;;;2.42;2.22;;;;;;;;;;4973476;28;20236;-82
2021/10/13 07:59:50;;;;;;;3.00;2.80;;;;;;;;;;4973912;28;20209;-83
2021/10/13 08:02:17;;;;;;;3.08;2.88;;;;;;;;;;4974294;28;20193;-83
2021/10/13 08:04:48;;;;;;;2.88;2.67;;;;;;;;;;4977277;28;20204;-82
2021/10/13 08:07:16;;;;;;;2.97;2.65;;;;;;;;;;4979633;28;20242;-83
2021/10/13 08:09:44;;;;;;;2.50;2.30;;;;;;;;;;4980228;28;20270;-84
2021/10/13 08:12:11;;;;;;;2.45;2.25;;;;;;;;;;4980212;28;20193;-84
2021/10/13 08:14:39;;;;;;;2.00;1.90;;;;;;;;;;4980622;28;20192;-83
2021/10/13 08:17:09;;;;;;;3.00;2.00;;;;;;;;;;4979319;28;20228;-84
2021/10/13 08:19:38;;;;;;;1.95;1.85;;;;;;;;;;4980013;28;20659;-84
2021/10/13 08:22:06;;;;;;;2.25;1.92;;;;;;;;;;4980209;28;20555;-83
2021/10/13 08:24:34;;;;;;;2.15;1.88;;;;;;;;;;4980050;28;20276;-84
2021/10/13 08:27:02;;;;;;;1.60;1.50;;;;;;;;;;4980003;28;20556;-84
2021/10/13 08:29:30;;;;;;;1.77;1.48;;;;;;;;;;4980520;28;20188;-84
2021/10/13 08:31:57;;;;;;;2.58;2.33;;;;;;;;;;4979858;28;20185;-83
2021/10/13 08:34:27;;;;;;;1.98;1.88;;;;;;;;;;4976731;28;20196;-84
2021/10/13 08:36:54;;;;;;;2.03;1.92;;;;;;;;;;4979527;28;20208;-84
2021/10/13 08:39:22;;;;;;;1.80;1.70;;;;;;;;;;4980015;28;20185;-84
2021/10/13 08:41:49;;;;;;;2.80;2.58;;;;;;;;;;4979117;28;20188;-82
2021/10/13 08:44:17;;;;;;;4.32;2.95;;;;;;;;;;4970572;28;20208;-84
2021/10/13 08:46:45;;;;;;;2.38;2.17;;;;;;;;;;4960682;29;20197;-84
2021/10/13 08:49:13;;;;;;;2.20;2.00;;;;;;;;;;4960190;29;20217;-84
2021/10/13 08:51:41;;;;;;;2.67;2.47;;;;;;;;;;4960370;29;20754;-84
2021/10/13 08:54:13;;;;;;;3.42;2.60;;;;;;;;;;4959960;29;20193;-84
2021/10/13 08:56:41;;;;;;;2.63;2.40;;;;;;;;;;4960246;29;20569;-84
2021/10/13 08:59:08;;;;;;;3.35;2.42;;;;;;;;;;4959930;29;20228;-83
2021/10/13 09:01:49;;;;;;;2.97;2.72;;;;;;;;;;4959615;29;20208;-84
2021/10/13 09:04:16;;;;;;;2.00;1.80;;;;;;;;;;4960107;29;20200;-84
2021/10/13 09:06:45;;;;;;;3.78;2.83;;;;;;;;;;4960321;29;20197;-84
2021/10/13 09:09:13;;;;;;;2.60;2.40;;;;;;;;;;4960171;29;20236;-84
2021/10/13 09:11:43;;;;;;;2.63;2.42;;;;;;;;;;4960228;29;20194;-83
2021/10/13 09:14:14;;;;;;;2.22;2.03;;;;;;;;;;4958765;28;20213;-83
2021/10/13 09:16:56;;;;;;;2.65;2.45;;;;;;;;;;4959398;29;20193;-84
2021/10/13 09:19:26;;;;;;;1.67;1.58;;;;;;;;;;4959740;29;20209;-84
2021/10/13 09:21:57;;;;;;;2.15;1.77;;;;;;;;;;4959771;29;20575;-85
2021/10/13 09:24:28;;;;;;;2.45;2.10;;;;;;;;;;4958981;29;20197;-84
2021/10/13 09:26:58;;;;;;;2.63;2.03;;;;;;;;;;4960115;29;20197;-84
2021/10/13 09:29:26;;;;;;;1.90;1.80;;;;;;;;;;4959569;29;20190;-84
2021/10/13 09:31:58;;;;;;;2.83;2.63;;;;;;;;;;4959608;29;20189;-85
2021/10/13 09:34:27;;;;;;;3.05;2.20;;;;;;;;;;4958220;29;20200;-84
2021/10/13 09:37:01;;;;;;;2.03;1.92;;;;;;;;;;4958138;29;20195;-84
2021/10/13 09:39:30;;;;;;;1.92;1.67;;;;;;;;;;4959083;29;20754;-84
2021/10/13 09:42:07;;;;;;;2.03;1.92;;;;;;;;;;4959423;29;20189;-84
2021/10/13 09:44:38;;;;;;;2.88;2.28;;;;;;;;;;4959748;29;20561;-84
2021/10/13 09:47:07;;;;;;;2.53;2.25;;;;;;;;;;4960033;29;20190;-84
2021/10/13 09:49:38;;;;;;;3.28;3.03;;;;;;;;;;4959616;29;20181;-84
2021/10/13 09:52:13;;;;;;;2.70;2.40;;;;;;;;;;4959004;29;20607;-83
2021/10/13 09:54:42;;;;;;;2.55;2.35;;;;;;;;;;4958740;29;20191;-85
2021/10/13 09:57:33;;;;;;;2.17;2.00;;;;;;;;;;4958852;29;20189;-84
2021/10/13 10:00:11;;;;;;;2.50;2.30;;;;;;;;;;4956809;28;20208;-85
2021/10/13 10:02:41;;;;;;;2.10;2.00;;;;;;;;;;4978414;28;20663;-84
2021/10/13 10:05:11;;;;;;;3.25;2.72;;;;;;;;;;4977392;28;20666;-84
2021/10/13 10:07:43;;;;;;;2.67;2.47;;;;;;;;;;4978235;28;20231;-84
2021/10/13 10:10:20;;;;;;;3.28;2.13;;;;;;;;;;4977958;28;20274;-84
2021/10/13 10:13:07;;;;;;;3.58;3.17;;;;;;;;;;4977157;28;20195;-83
2021/10/13 10:15:38;;;;;;;3.47;2.20;;;;;;;;;;4978028;28;20195;-84
2021/10/13 10:18:31;;;;;;;2.90;2.60;;;;;;;;;;4976789;28;20228;-85
2021/10/13 10:21:13;;;;;;;3.00;2.75;;;;;;;;;;4977713;28;20267;-84
2021/10/13 10:23:43;;;;;;;2.67;2.17;;;;;;;;;;4978452;28;20197;-85
2021/10/13 10:26:31;;;;;;;3.22;2.92;;;;;;;;;;4977085;28;20235;-84
2021/10/13 10:29:00;;;;;;;2.83;2.63;;;;;;;;;;4977570;28;20226;-85
2021/10/13 10:31:39;;;;;;;2.65;2.20;;;;;;;;;;4978667;28;20195;-85
2021/10/13 10:34:17;;;;;;;5.07;3.50;;;;;;;;;;4978998;28;20207;-85
2021/10/13 10:37:16;;;;;;;3.22;2.92;;;;;;;;;;4978472;28;20208;-84
2021/10/13 10:40:04;;;;;;;2.08;1.98;;;;;;;;;;4970007;28;20226;-84
2021/10/13 10:43:02;;;;;;;2.10;1.90;;;;;;;;;;4977145;28;20208;-84
2021/10/13 10:45:33;;;;;;;1.70;1.60;;;;;;;;;;4978192;28;20616;-85
2021/10/13 10:48:10;;;;;;;2.08;1.83;;;;;;;;;;4967946;28;20224;-84
2021/10/13 10:50:44;;;;;;;1.98;1.88;;;;;;;;;;4968337;28;20207;-84
2021/10/13 10:53:44;;;;;;;3.63;3.08;;;;;;;;;;4977804;28;20614;-85
2021/10/13 10:56:22;;;;;;;5.93;2.17;;;;;;;;;;4958301;28;20204;-84
2021/10/13 10:59:00;;;;;;;1.63;1.48;;;;;;;;;;4978288;28;20286;-85
2021/10/13 11:01:28;;;;;;;1.95;1.75;;;;;;;;;;4975050;28;20204;-84
2021/10/13 11:03:55;;;;;;;4.00;2.20;;;;;;;;;;4958238;29;20221;-84
2021/10/13 11:06:25;;;;;;;1.52;1.40;;;;;;;;;;4958199;29;20731;-84
2021/10/13 11:09:04;;;;;;;2.40;2.20;;;;;;;;;;4958505;29;20221;-84
2021/10/13 11:11:35;;;;;;;1.80;1.58;;;;;;;;;;4958450;29;20188;-83
2021/10/13 11:14:07;;;;;;;1.70;1.60;;;;;;;;;;4958078;29;20713;-84
2021/10/13 11:16:37;;;;;;;2.00;1.83;;;;;;;;;;4957770;29;20667;-84
2021/10/13 11:19:15;;;;;;;2.97;1.60;;;;;;;;;;4974215;28;20232;-85
2021/10/13 11:21:44;;;;;;;1.98;1.77;;;;;;;;;;4977342;28;20207;-84
2021/10/13 11:24:11;;;;;;;6.07;2.60;;;;;;;;;;4977348;28;20209;-83
2021/10/13 11:26:44;;;;;;;3.38;1.67;;;;;;;;;;4976511;28;20579;-84
2021/10/13 11:29:25;;;;;;;4.13;2.03;;;;;;;;;;4976414;28;20224;-82
2021/10/13 11:32:05;;;;;;;3.50;1.70;;;;;;;;;;4976796;28;20193;-84
2021/10/13 11:34:32;;;;;;;2.10;1.90;;;;;;;;;;4976724;28;20196;-84
2021/10/13 11:37:00;;;;;;;2.28;1.80;;;;;;;;;;4977101;28;20662;-82
2021/10/13 11:39:33;;;;;;;3.70;2.00;;;;;;;;;;4976551;28;20221;-84
2021/10/13 11:42:02;;;;;;;4.97;2.53;;;;;;;;;;4976717;28;20184;-83
2021/10/13 11:44:31;;;;;;;3.70;2.20;;;;;;;;;;4977245;28;20194;-83
2021/10/13 11:47:04;;;;;;;3.40;2.67;;;;;;;;;;4976607;28;20200;-84
2021/10/13 11:49:32;;;;;;;2.47;1.73;;;;;;;;;;4976145;28;20635;-84
2021/10/13 11:52:14;;;;;;;3.30;2.03;;;;;;;;;;4973819;28;20228;-84
2021/10/13 11:54:42;;;;;;;3.22;2.00;;;;;;;;;;4957153;29;20587;-84
2021/10/13 11:57:15;;;;;;;2.60;2.13;;;;;;;;;;4956847;29;20197;-84
2021/10/13 11:59:42;;;;;;;2.75;2.25;;;;;;;;;;4957159;29;20252;-84
2021/10/13 12:02:18;;;;;;;3.13;2.13;;;;;;;;;;4957637;29;20209;-84
2021/10/13 12:04:54;;;;;;;5.03;2.35;;;;;;;;;;4957638;29;20656;-84
2021/10/13 12:07:25;;;;;;;3.22;2.20;;;;;;;;;;4957172;29;20228;-84
2021/10/13 12:10:01;;;;;;;2.70;2.50;;;;;;;;;;4956803;29;20186;-84
2021/10/13 12:12:30;;;;;;;6.78;2.63;;;;;;;;;;4957768;29;20193;-83
2021/10/13 12:14:58;;;;;;;3.67;2.80;;;;;;;;;;4957266;29;20208;-84
2021/10/13 12:17:32;;;;;;;3.03;2.20;;;;;;;;;;4956402;29;20708;-84
2021/10/13 12:20:02;;;;;;;4.18;2.25;;;;;;;;;;4956777;29;20216;-84
2021/10/13 12:22:48;;;;;;;2.13;1.70;;;;;;;;;;4957342;29;20221;-83
2021/10/13 12:25:32;;;;;;;3.72;2.35;;;;;;;;;;4957080;29;20193;-82
2021/10/13 12:28:01;;;;;;;3.55;3.25;;;;;;;;;;4956738;29;20614;-83
2021/10/13 12:30:31;;;;;;;4.15;2.20;;;;;;;;;;4957206;29;20216;-83
2021/10/13 12:33:08;;;;;;;4.80;2.17;;;;;;;;;;4956386;29;20192;-84
2021/10/13 12:35:36;;;;;;;2.90;2.08;;;;;;;;;;4956457;29;20189;-84
2021/10/13 12:38:09;;;;;;;7.65;3.63;;;;;;;;;;4956229;29;20599;-82
2021/10/13 12:40:38;;;;;;;4.00;2.20;;;;;;;;;;4956474;29;20213;-83
2021/10/13 12:43:21;;;;;;;2.40;2.10;;;;;;;;;;4956858;29;20200;-83
2021/10/13 12:45:49;;;;;;;2.67;1.88;;;;;;;;;;4955974;29;20244;-83
2021/10/13 12:48:19;;;;;;;3.70;1.90;;;;;;;;;;4956226;28;20248;-84
2021/10/13 12:51:07;;;;;;;1.77;1.67;;;;;;;;;;4960003;29;20198;-83
2021/10/13 12:53:36;;;;;;;3.13;2.03;;;;;;;;;;4960135;29;20185;-84
2021/10/13 12:56:04;;;;;;;4.07;2.05;;;;;;;;;;4960054;29;20189;-84
2021/10/13 12:58:33;;;;;;;5.65;2.30;;;;;;;;;;4959897;29;20213;-84
2021/10/13 13:01:00;;;;;;;2.33;1.70;;;;;;;;;;4959828;29;20213;-83
2021/10/13 13:03:28;;;;;;;2.97;1.95;;;;;;;;;;4959326;29;20209;-82
2021/10/13 13:05:56;;;;;;;3.03;1.67;;;;;;;;;;4959656;29;20197;-84
2021/10/13 13:08:24;;;;;;;4.15;1.92;;;;;;;;;;4973253;28;20221;-85
2021/10/13 13:10:52;;;;;;;1.58;1.48;;;;;;;;;;4979320;28;20192;-85
2021/10/13 13:13:20;;;;;;;2.33;1.73;;;;;;;;;;4979589;28;20272;-84
2021/10/13 13:15:49;;;;;;;2.53;1.73;;;;;;;;;;4979257;28;20566;-84
2021/10/13 13:18:17;;;;;;;2.45;1.98;;;;;;;;;;4986520;28;20227;-84
2021/10/13 13:20:45;;;;;;;1.75;1.42;;;;;;;;;;4998927;28;20590;-84
2021/10/13 13:23:12;;;;;;;3.65;2.30;;;;;;;;;;4993562;28;20198;-83
2021/10/13 13:25:41;;;;;;;4.07;1.90;;;;;;;;;;4978420;28;20219;-83
2021/10/13 13:28:09;;;;;;;1.88;1.38;;;;;;;;;;4977997;28;20263;-83
2021/10/13 13:30:36;;;;;;;3.10;1.73;;;;;;;;;;4979221;28;20208;-82
2021/10/13 13:33:05;;;;;;;3.17;1.48;;;;;;;;;;4979241;28;20205;-82
2021/10/13 13:35:32;;;;;;;2.80;2.03;;;;;;;;;;4979252;28;20200;-83
2021/10/13 13:38:00;;;;;;;4.50;1.70;;;;;;;;;;4978366;28;20228;-83
2021/10/13 13:40:27;;;;;;;2.95;1.55;;;;;;;;;;4979595;28;20236;-83
2021/10/13 13:42:55;;;;;;;3.58;1.63;;;;;;;;;;4979235;28;20204;-84
2021/10/13 13:45:22;;;;;;;2.67;1.63;;;;;;;;;;4978643;28;20208;-83
2021/10/13 13:47:50;;;;;;;2.90;1.50;;;;;;;;;;4978597;28;20224;-84
2021/10/13 13:50:19;;;;;;;2.25;1.58;;;;;;;;;;4978104;28;20201;-82
2021/10/13 13:52:46;;;;;;;1.40;1.27;;;;;;;;;;4978853;28;20246;-84
2021/10/13 13:55:14;;;;;;;1.77;1.50;;;;;;;;;;4978860;28;20243;-84
2021/10/13 13:57:41;;;;;;;2.45;1.60;;;;;;;;;;4978095;28;20231;-84
2021/10/13 14:00:11;;;;;;;1.45;1.35;;;;;;;;;;4978463;28;20193;-84
2021/10/13 14:02:38;;;;;;;3.70;1.60;;;;;;;;;;4979395;28;20212;-84
2021/10/13 14:05:07;;;;;;;3.78;1.92;;;;;;;;;;4979098;28;20248;-84
2021/10/13 14:07:36;;;;;;;1.60;1.50;;;;;;;;;;4978494;28;20224;-83
2021/10/13 14:10:04;;;;;;;1.92;1.70;;;;;;;;;;4978912;28;20195;-82
2021/10/13 14:12:32;;;;;;;3.63;1.80;;;;;;;;;;4978143;28;20201;-83
2021/10/13 14:14:59;;;;;;;2.60;1.20;;;;;;;;;;4977933;28;20189;-83
2021/10/13 14:17:27;;;;;;;1.60;1.33;;;;;;;;;;4978052;28;20234;-84
2021/10/13 14:19:54;;;;;;;2.55;1.40;;;;;;;;;;4978600;28;20196;-84
2021/10/13 14:22:22;;;;;;;3.67;1.50;;;;;;;;;;4978401;28;20330;-83
2021/10/13 14:24:50;;;;;;;2.28;1.73;;;;;;;;;;4977988;28;20205;-84
2021/10/13 14:27:18;;;;;;;1.38;1.27;;;;;;;;;;4978121;28;20232;-82
2021/10/13 14:29:45;;;;;;;1.50;1.40;;;;;;;;;;4978275;28;20205;-84
2021/10/13 14:32:13;;;;;;;1.30;1.20;;;;;;;;;;4977972;28;20203;-85
2021/10/13 14:34:42;;;;;;;1.17;1.10;;;;;;;;;;4978416;28;20188;-84
2021/10/13 14:37:10;;;;;;;1.33;1.17;;;;;;;;;;4978158;28;20548;-84
2021/10/13 14:39:37;;;;;;;3.63;1.40;;;;;;;;;;4977971;28;20204;-85
2021/10/13 14:42:06;;;;;;;1.67;1.58;;;;;;;;;;4978731;28;20231;-84
2021/10/13 14:44:34;;;;;;;1.63;1.23;;;;;;;;;;4977900;28;20219;-83
2021/10/13 14:47:02;;;;;;;1.95;1.33;;;;;;;;;;4975239;28;20185;-81
2021/10/13 14:49:29;;;;;;;1.55;1.20;;;;;;;;;;4975386;28;20204;-82
2021/10/13 14:51:57;;;;;;;2.35;1.33;;;;;;;;;;4975058;28;20235;-83
2021/10/13 14:54:25;;;;;;;2.92;1.20;;;;;;;;;;4975359;28;20576;-82
2021/10/13 14:56:53;;;;;;;1.20;1.15;;;;;;;;;;4977645;28;20185;-85
2021/10/13 14:59:27;;;;;;;1.90;1.70;;;;;;;;;;4977973;28;20184;-86